createdAt,value
2022-10-30T00:00:56.554Z,89.76
2022-10-30T00:03:24.100Z,89.09
2022-10-30T00:05:52.579Z,89.50
2022-10-30T00:08:22.844Z,89.91
2022-10-30T00:10:51.194Z,90.19
2022-10-30T00:13:21.133Z,90.37
2022-10-30T00:15:50.697Z,90.41
2022-10-30T00:18:18.844Z,90.96
2022-10-30T00:20:46.502Z,91.53
2022-10-30T00:23:14.361Z,92.38
2022-10-30T00:25:42.003Z,93.42
2022-10-30T00:28:09.663Z,93.25
2022-10-30T00:30:38.931Z,92.69
2022-10-30T00:33:09.553Z,92.08
2022-10-30T00:35:37.257Z,92.53
2022-10-30T00:38:04.970Z,92.38
2022-10-30T00:40:32.522Z,92.38
2022-10-30T00:43:00.088Z,92.15
2022-10-30T00:45:27.719Z,91.83
2022-10-30T00:48:01.605Z,91.44
2022-10-30T00:50:33.079Z,90.90
2022-10-30T00:53:06.163Z,90.59
2022-10-30T00:55:38.480Z,90.56
2022-10-30T00:58:10.491Z,90.91
2022-10-30T01:00:41.737Z,90.87
2022-10-30T01:03:10.761Z,90.73
2022-10-30T01:05:39.564Z,90.36
2022-10-30T01:08:07.302Z,90.71
2022-10-30T01:10:34.921Z,90.20
2022-10-30T01:13:03.100Z,90.21
2022-10-30T01:15:36.768Z,89.92
2022-10-30T01:18:21.304Z,90.42
2022-10-30T01:21:08.549Z,91.53
2022-10-30T01:23:45.997Z,91.90
2022-10-30T01:26:24.511Z,92.00
2022-10-30T01:29:08.103Z,92.28
2022-10-30T01:31:50.494Z,92.02
2022-10-30T01:34:33.409Z,92.08
2022-10-30T01:37:06.141Z,92.59
2022-10-30T01:39:36.897Z,92.80
2022-10-30T01:42:10.865Z,92.73
2022-10-30T01:44:39.097Z,93.35
2022-10-30T01:47:23.901Z,93.93
2022-10-30T01:50:18.881Z,94.08
2022-10-30T01:52:52.522Z,94.27
2022-10-30T01:55:34.624Z,94.73
2022-10-30T01:58:10.782Z,94.49
2022-10-30T02:00:42.190Z,94.23
2022-10-30T02:03:10.422Z,93.57
2022-10-30T02:05:44.034Z,93.17
2022-10-30T02:08:11.890Z,92.96
2022-10-30T02:10:40.043Z,93.25
2022-10-30T02:13:07.683Z,93.39
2022-10-30T02:15:35.668Z,94.03
2022-10-30T02:18:03.385Z,93.80
2022-10-30T02:20:33.109Z,94.42
2022-10-30T02:23:01.080Z,95.53
2022-10-30T02:25:28.976Z,95.71
2022-10-30T02:27:57.071Z,95.01
2022-10-30T02:30:24.718Z,94.54
2022-10-30T02:32:52.385Z,94.12
2022-10-30T02:35:20.043Z,94.08
2022-10-30T02:37:50.411Z,93.70
2022-10-30T02:40:18.385Z,93.52
2022-10-30T02:42:45.938Z,93.46
2022-10-30T02:45:13.699Z,93.71
2022-10-30T02:47:41.267Z,93.76
2022-10-30T02:50:10.290Z,94.44
2022-10-30T02:52:37.889Z,94.09
2022-10-30T02:55:07.429Z,93.69
2022-10-30T02:57:35.058Z,94.12
2022-10-30T03:00:02.762Z,95.34
2022-10-30T03:02:30.320Z,96.29
2022-10-30T03:04:57.913Z,95.80
2022-10-30T03:07:25.551Z,95.38
2022-10-30T03:09:54.395Z,95.43
2022-10-30T03:12:23.669Z,95.65
2022-10-30T03:14:51.367Z,95.94
2022-10-30T03:17:18.982Z,95.75
2022-10-30T03:19:46.592Z,95.40
2022-10-30T03:22:14.223Z,95.28
2022-10-30T03:24:41.835Z,95.04
2022-10-30T03:27:09.376Z,94.95
2022-10-30T03:29:38.329Z,94.91
2022-10-30T03:32:10.523Z,94.76
2022-10-30T03:34:38.164Z,94.77
2022-10-30T03:37:06.123Z,94.48
2022-10-30T03:39:33.743Z,94.32
2022-10-30T03:42:01.314Z,94.99
2022-10-30T03:44:28.874Z,94.66
2022-10-30T03:46:58.222Z,94.77
2022-10-30T03:49:26.052Z,95.08
2022-10-30T03:51:53.614Z,94.76
2022-10-30T03:54:21.184Z,94.47
2022-10-30T03:56:48.771Z,93.66
2022-10-30T03:59:16.340Z,92.93
2022-10-30T04:01:44.101Z,93.50
2022-10-30T04:04:13.409Z,93.41
2022-10-30T04:06:40.954Z,93.96
2022-10-30T04:09:08.530Z,94.17
2022-10-30T04:11:36.120Z,94.21
2022-10-30T04:14:03.700Z,94.39
2022-10-30T04:16:31.288Z,93.94
2022-10-30T04:18:58.883Z,93.79
2022-10-30T04:21:27.779Z,93.83
2022-10-30T04:23:55.333Z,93.46
2022-10-30T04:26:22.894Z,93.21
2022-10-30T04:28:50.472Z,93.07
2022-10-30T04:31:18.083Z,93.11
2022-10-30T04:33:45.669Z,93.59
2022-10-30T04:36:13.229Z,93.94
2022-10-30T04:38:42.132Z,94.18
2022-10-30T04:41:09.744Z,92.95
2022-10-30T04:43:37.352Z,92.71
2022-10-30T04:46:06.359Z,92.84
2022-10-30T04:48:36.179Z,92.74
2022-10-30T04:51:03.774Z,92.36
2022-10-30T04:53:31.357Z,91.50
2022-10-30T04:56:00.331Z,91.98
2022-10-30T04:58:27.914Z,91.63
2022-10-30T05:01:00.345Z,91.45
2022-10-30T05:03:30.605Z,91.17
2022-10-30T05:06:00.602Z,90.66
2022-10-30T05:08:28.500Z,90.71
2022-10-30T05:10:56.905Z,90.35
2022-10-30T05:13:25.965Z,90.38
2022-10-30T05:15:55.075Z,90.27
2022-10-30T05:18:22.808Z,90.60
2022-10-30T05:20:50.590Z,91.14
2022-10-30T05:23:18.161Z,90.80
2022-10-30T05:25:45.994Z,90.57
2022-10-30T05:28:13.677Z,90.68
2022-10-30T05:30:42.695Z,92.08
2022-10-30T05:33:12.368Z,92.32
2022-10-30T05:35:40.381Z,92.57
2022-10-30T05:38:08.759Z,92.16
2022-10-30T05:40:36.853Z,92.06
2022-10-30T05:43:05.302Z,91.67
2022-10-30T05:45:33.256Z,91.23
2022-10-30T05:48:04.149Z,91.13
2022-10-30T05:50:31.977Z,90.62
2022-10-30T05:53:00.110Z,90.21
2022-10-30T05:55:28.619Z,90.66
2022-10-30T05:58:00.400Z,90.61
2022-10-30T06:00:29.701Z,90.08
2022-10-30T06:03:02.209Z,90.05
2022-10-30T06:05:32.362Z,89.83
2022-10-30T06:08:00.126Z,89.66
2022-10-30T06:10:28.610Z,89.41
2022-10-30T06:12:57.096Z,89.25
2022-10-30T06:15:25.639Z,88.98
2022-10-30T06:17:53.447Z,88.98
2022-10-30T06:20:26.042Z,89.54
2022-10-30T06:22:57.311Z,89.61
2022-10-30T06:25:25.755Z,89.43
2022-10-30T06:27:53.741Z,89.75
2022-10-30T06:30:21.869Z,89.24
2022-10-30T06:32:49.645Z,89.09
2022-10-30T06:35:17.885Z,89.53
2022-10-30T06:37:50.261Z,89.36
2022-10-30T06:40:18.302Z,89.88
2022-10-30T06:42:46.651Z,89.94
2022-10-30T06:45:15.994Z,89.52
2022-10-30T06:47:43.982Z,89.42
2022-10-30T06:50:13.565Z,89.20
2022-10-30T06:52:41.248Z,89.47
2022-10-30T06:55:11.392Z,89.52
2022-10-30T06:57:39.551Z,90.30
2022-10-30T07:00:09.240Z,90.93
2022-10-30T07:02:36.929Z,90.89
2022-10-30T07:05:04.747Z,90.35
2022-10-30T07:07:32.665Z,90.10
2022-10-30T07:10:00.305Z,90.30
2022-10-30T07:12:29.296Z,90.62
2022-10-30T07:14:56.945Z,91.77
2022-10-30T07:17:24.607Z,91.41
2022-10-30T07:19:52.442Z,91.52
2022-10-30T07:22:20.013Z,91.80
2022-10-30T07:24:47.610Z,92.21
2022-10-30T07:27:15.163Z,92.61
2022-10-30T07:29:44.106Z,92.35
2022-10-30T07:32:13.183Z,91.95
2022-10-30T07:34:40.847Z,92.21
2022-10-30T07:37:08.485Z,92.14
2022-10-30T07:39:36.048Z,92.42
2022-10-30T07:42:03.828Z,92.33
2022-10-30T07:44:31.496Z,92.65
2022-10-30T07:47:00.444Z,91.83
2022-10-30T07:49:28.018Z,91.31
2022-10-30T07:51:55.605Z,91.20
2022-10-30T07:54:23.141Z,91.00
2022-10-30T07:56:50.762Z,91.10
2022-10-30T07:59:18.314Z,91.45
2022-10-30T08:01:45.989Z,91.25
2022-10-30T08:04:15.018Z,91.43
2022-10-30T08:06:42.671Z,91.54
2022-10-30T08:09:10.822Z,91.36
2022-10-30T08:11:38.426Z,91.48
2022-10-30T08:14:06.869Z,91.52
2022-10-30T08:16:34.429Z,91.10
2022-10-30T08:19:01.987Z,91.35
2022-10-30T08:21:30.946Z,92.80
2022-10-30T08:23:58.500Z,92.52
2022-10-30T08:26:26.072Z,92.50
2022-10-30T08:28:53.658Z,92.08
2022-10-30T08:31:21.281Z,92.11
2022-10-30T08:33:48.793Z,91.63
2022-10-30T08:36:16.411Z,89.15
2022-10-30T08:38:45.325Z,87.42
2022-10-30T08:41:12.908Z,87.32
2022-10-30T08:43:40.469Z,84.80
2022-10-30T08:46:08.013Z,82.68
2022-10-30T08:48:35.636Z,79.32
2022-10-30T08:51:03.191Z,77.56
2022-10-30T08:53:30.808Z,76.81
2022-10-30T08:55:59.717Z,74.63
2022-10-30T08:58:27.298Z,70.33
2022-10-30T09:01:00.161Z,65.10
2022-10-30T09:03:28.737Z,62.17
2022-10-30T09:05:59.267Z,60.27
2022-10-30T09:08:26.852Z,60.65
2022-10-30T09:10:55.931Z,58.13
2022-10-30T09:13:25.146Z,53.90
2022-10-30T09:15:52.948Z,51.28
2022-10-30T09:18:21.084Z,51.67
2022-10-30T09:20:50.402Z,50.71
2022-10-30T09:23:18.007Z,50.27
2022-10-30T09:25:45.613Z,48.78
2022-10-30T09:28:13.222Z,47.63
2022-10-30T09:30:42.158Z,48.20
2022-10-30T09:33:10.678Z,49.28
2022-10-30T09:35:38.265Z,49.05
2022-10-30T09:38:05.904Z,49.58
2022-10-30T09:40:45.473Z,48.55
2022-10-30T09:43:26.340Z,49.82
2022-10-30T09:46:14.305Z,51.29
2022-10-30T09:48:59.168Z,53.18
2022-10-30T09:51:39.924Z,54.44
2022-10-30T09:54:16.125Z,55.83
2022-10-30T09:56:46.346Z,57.73
2022-10-30T09:59:27.498Z,59.18
2022-10-30T10:02:02.785Z,59.70
2022-10-30T10:04:39.279Z,58.59
2022-10-30T10:07:14.889Z,55.23
2022-10-30T10:09:44.617Z,52.79
2022-10-30T10:12:19.560Z,51.62
2022-10-30T10:14:49.189Z,50.83
2022-10-30T10:17:25.349Z,51.52
2022-10-30T10:20:00.197Z,51.60
2022-10-30T10:22:34.430Z,51.94
2022-10-30T10:25:04.621Z,52.80
2022-10-30T10:27:48.265Z,55.60
2022-10-30T10:30:20.144Z,56.98
2022-10-30T10:33:26.963Z,59.48
2022-10-30T10:36:17.618Z,60.43
2022-10-30T10:38:58.404Z,59.81
2022-10-30T10:41:36.774Z,59.42
2022-10-30T10:44:21.810Z,56.51
2022-10-30T10:47:07.162Z,55.62
2022-10-30T10:49:51.362Z,55.98
2022-10-30T10:52:22.662Z,55.96
2022-10-30T10:54:53.564Z,56.42
2022-10-30T10:57:28.443Z,55.94
2022-10-30T10:59:59.623Z,54.96
2022-10-30T11:02:36.115Z,52.20
2022-10-30T11:05:09.232Z,51.36
2022-10-30T11:07:45.754Z,51.49
2022-10-30T11:10:16.077Z,51.83
2022-10-30T11:12:43.784Z,51.91
2022-10-30T11:15:29.552Z,51.43
2022-10-30T11:18:01.969Z,52.87
2022-10-30T11:20:39.087Z,52.98
2022-10-30T11:23:39.649Z,52.47
2022-10-30T11:26:30.582Z,52.39
2022-10-30T11:29:03.061Z,53.93
2022-10-30T11:31:35.328Z,54.57
2022-10-30T11:34:26.822Z,55.09
2022-10-30T11:36:56.026Z,55.05
2022-10-30T11:39:25.318Z,54.76
2022-10-30T11:41:59.518Z,55.34
2022-10-30T11:44:32.490Z,54.92
2022-10-30T11:47:06.878Z,54.76
2022-10-30T11:49:44.682Z,53.58
2022-10-30T11:52:15.756Z,52.85
2022-10-30T11:54:46.314Z,50.37
2022-10-30T11:57:23.059Z,48.33
2022-10-30T11:59:55.485Z,48.53
2022-10-30T12:02:28.279Z,49.15
2022-10-30T12:05:02.493Z,49.51
2022-10-30T12:07:34.564Z,49.57
2022-10-30T12:10:04.008Z,51.18
2022-10-30T12:12:37.601Z,51.01
2022-10-30T12:15:18.266Z,50.84
2022-10-30T12:17:53.623Z,49.83
2022-10-30T12:20:22.376Z,50.75
2022-10-30T12:22:51.377Z,51.78
2022-10-30T12:25:24.277Z,53.10
2022-10-30T12:27:59.069Z,51.80
2022-10-30T12:30:29.845Z,50.31
2022-10-30T12:33:01.769Z,50.39
2022-10-30T12:35:40.220Z,49.37
2022-10-30T12:38:17.651Z,48.25
2022-10-30T12:40:55.298Z,47.58
2022-10-30T12:43:28.073Z,46.43
2022-10-30T12:46:11.178Z,47.11
2022-10-30T12:48:42.725Z,48.19
2022-10-30T12:51:21.378Z,47.87
2022-10-30T12:53:59.084Z,48.40
2022-10-30T12:56:31.802Z,49.32
2022-10-30T12:59:14.992Z,50.76
2022-10-30T13:01:48.986Z,51.36
2022-10-30T13:04:20.104Z,52.12
2022-10-30T13:06:52.960Z,53.09
2022-10-30T13:09:27.814Z,53.59
2022-10-30T13:12:00.383Z,54.04
2022-10-30T13:14:36.341Z,54.97
2022-10-30T13:17:04.093Z,55.89
2022-10-30T13:19:31.732Z,56.73
2022-10-30T13:22:04.476Z,57.69
2022-10-30T13:24:47.045Z,57.29
2022-10-30T13:27:21.073Z,57.36
2022-10-30T13:30:01.364Z,58.15
2022-10-30T13:32:46.811Z,58.93
2022-10-30T13:35:24.333Z,58.79
2022-10-30T13:38:00.601Z,58.95
2022-10-30T13:40:37.011Z,58.53
2022-10-30T13:43:21.729Z,58.84
2022-10-30T13:46:11.482Z,59.21
2022-10-30T13:48:58.754Z,59.55
2022-10-30T13:51:36.051Z,58.98
2022-10-30T13:54:11.340Z,59.21
2022-10-30T13:56:41.696Z,59.54
2022-10-30T13:59:21.422Z,59.71
2022-10-30T14:01:57.681Z,60.11
2022-10-30T14:04:37.810Z,59.89
2022-10-30T14:07:19.676Z,59.84
2022-10-30T14:09:58.273Z,60.24
2022-10-30T14:12:50.820Z,60.58
2022-10-30T14:15:33.200Z,60.54
2022-10-30T14:18:25.681Z,61.23
2022-10-30T14:20:54.236Z,61.23
2022-10-30T14:23:23.961Z,62.08
2022-10-30T14:26:22.256Z,61.87
2022-10-30T14:28:53.597Z,62.27
2022-10-30T14:31:34.833Z,63.34
2022-10-30T14:34:02.945Z,63.48
2022-10-30T14:36:51.300Z,63.97
2022-10-30T14:39:30.046Z,64.30
2022-10-30T14:42:09.060Z,64.55
2022-10-30T14:45:10.333Z,64.91
2022-10-30T14:47:57.683Z,65.14
2022-10-30T14:50:34.528Z,65.39
2022-10-30T14:53:21.111Z,65.69
2022-10-30T14:55:56.886Z,65.34
2022-10-30T14:58:27.067Z,65.76
2022-10-30T15:01:27.084Z,65.74
2022-10-30T15:04:05.396Z,66.26
2022-10-30T15:06:38.646Z,67.79
2022-10-30T15:09:21.684Z,69.08
2022-10-30T15:12:03.070Z,69.11
2022-10-30T15:14:53.425Z,69.46
2022-10-30T15:17:29.273Z,69.37
2022-10-30T15:19:58.840Z,70.71
2022-10-30T15:22:28.830Z,72.34
2022-10-30T15:24:56.915Z,72.70
2022-10-30T15:27:26.972Z,73.43
2022-10-30T15:29:57.693Z,74.99
2022-10-30T15:32:27.127Z,74.91
2022-10-30T15:34:57.151Z,76.25
2022-10-30T15:37:24.777Z,75.54
2022-10-30T15:40:11.035Z,76.22
2022-10-30T15:42:39.469Z,77.17
2022-10-30T15:45:12.970Z,77.40
2022-10-30T15:47:48.293Z,77.72
2022-10-30T15:50:17.390Z,77.70
2022-10-30T15:52:45.055Z,77.69
2022-10-30T15:55:17.415Z,77.93
2022-10-30T15:58:03.041Z,78.09
2022-10-30T16:00:34.374Z,79.37
2022-10-30T16:03:05.908Z,80.28
2022-10-30T16:05:34.791Z,80.84
2022-10-30T16:08:05.276Z,80.81
2022-10-30T16:10:35.615Z,81.33
2022-10-30T16:13:04.665Z,81.36
2022-10-30T16:15:34.789Z,81.76
2022-10-30T16:18:14.456Z,81.54
2022-10-30T16:20:45.065Z,82.39
2022-10-30T16:23:13.651Z,82.57
2022-10-30T16:25:46.932Z,82.33
2022-10-30T16:28:28.311Z,81.86
2022-10-30T16:30:58.608Z,82.14
2022-10-30T16:33:31.282Z,82.08
2022-10-30T16:35:59.507Z,82.42
2022-10-30T16:38:32.382Z,82.16
2022-10-30T16:41:00.302Z,82.17
2022-10-30T16:43:30.605Z,82.16
2022-10-30T16:46:31.470Z,82.90
2022-10-30T16:49:04.164Z,83.34
2022-10-30T16:51:32.210Z,83.71
2022-10-30T16:53:59.859Z,83.75
2022-10-30T16:56:29.039Z,83.75
2022-10-30T16:58:59.895Z,83.67
2022-10-30T17:01:29.249Z,84.27
2022-10-30T17:03:57.729Z,84.62
2022-10-30T17:06:35.741Z,84.88
2022-10-30T17:09:08.650Z,85.66
2022-10-30T17:11:39.904Z,85.83
2022-10-30T17:14:19.118Z,86.09
2022-10-30T17:16:55.583Z,86.00
2022-10-30T17:19:47.035Z,85.79
2022-10-30T17:22:20.384Z,85.88
2022-10-30T17:24:48.577Z,84.45
2022-10-30T17:27:46.033Z,82.96
2022-10-30T17:30:35.398Z,83.35
2022-10-30T17:33:04.715Z,80.82
2022-10-30T17:35:32.303Z,81.98
2022-10-30T17:38:03.040Z,82.18
2022-10-30T17:40:31.015Z,82.69
2022-10-30T17:42:58.614Z,82.46
2022-10-30T17:45:26.262Z,82.87
2022-10-30T17:47:54.024Z,82.94
2022-10-30T17:50:21.616Z,83.22
2022-10-30T17:52:49.204Z,83.11
2022-10-30T17:55:28.150Z,82.74
2022-10-30T17:57:55.734Z,83.00
2022-10-30T18:00:23.304Z,82.90
2022-10-30T18:02:50.938Z,82.99
2022-10-30T18:05:22.716Z,83.00
2022-10-30T18:10:22.880Z,82.95
2022-10-30T18:12:51.847Z,82.57
2022-10-30T18:15:27.910Z,82.19
2022-10-30T18:17:55.804Z,82.34
2022-10-30T18:20:26.544Z,82.17
2022-10-30T18:22:55.431Z,82.43
2022-10-30T18:25:26.463Z,82.05
2022-10-30T18:27:55.405Z,82.71
2022-10-30T18:30:23.281Z,83.45
2022-10-30T18:32:51.449Z,83.19
2022-10-30T18:35:29.741Z,83.05
2022-10-30T18:37:57.421Z,83.50
2022-10-30T18:40:25.086Z,83.70
2022-10-30T18:42:53.030Z,84.26
2022-10-30T18:45:24.582Z,84.60
2022-10-30T18:47:53.417Z,85.93
2022-10-30T18:50:22.817Z,86.13
2022-10-30T18:52:50.837Z,86.75
2022-10-30T18:55:21.736Z,87.20
2022-10-30T18:57:50.858Z,87.33
2022-10-30T19:00:23.025Z,87.82
2022-10-30T19:02:53.214Z,87.61
2022-10-30T19:05:32.696Z,86.82
2022-10-30T19:08:02.236Z,86.03
2022-10-30T19:10:33.580Z,85.75
2022-10-30T19:13:12.106Z,85.74
2022-10-30T19:15:42.199Z,85.60
2022-10-30T19:18:11.805Z,85.44
2022-10-30T19:21:02.693Z,85.38
2022-10-30T19:23:27.622Z,85.28
2022-10-30T19:25:56.197Z,85.09
2022-10-30T19:28:23.904Z,86.61
2022-10-30T19:30:52.848Z,87.90
2022-10-30T19:33:23.306Z,88.32
2022-10-30T19:35:54.744Z,88.36
2022-10-30T19:38:22.738Z,88.16
2022-10-30T19:40:51.015Z,87.89
2022-10-30T19:43:18.666Z,87.82
2022-10-30T19:45:48.063Z,87.41
2022-10-30T19:48:24.924Z,86.69
2022-10-30T19:50:59.067Z,86.44
2022-10-30T19:53:26.691Z,86.15
2022-10-30T19:55:54.581Z,85.84
2022-10-30T19:58:25.196Z,86.74
2022-10-30T20:00:54.472Z,86.79
2022-10-30T20:03:25.043Z,86.30
2022-10-30T20:05:52.744Z,86.49
2022-10-30T20:08:24.003Z,86.02
2022-10-30T20:10:53.539Z,85.75
2022-10-30T20:13:23.252Z,85.89
2022-10-30T20:15:51.315Z,85.78
2022-10-30T20:18:20.980Z,85.89
2022-10-30T20:20:50.505Z,85.84
2022-10-30T20:23:18.792Z,85.20
2022-10-30T20:25:48.393Z,84.87
2022-10-30T20:28:23.075Z,84.43
2022-10-30T20:30:51.517Z,84.26
2022-10-30T20:33:20.216Z,83.84
2022-10-30T20:35:48.543Z,83.91
2022-10-30T20:38:18.708Z,85.26
2022-10-30T20:40:48.783Z,85.61
2022-10-30T20:43:18.747Z,85.89
2022-10-30T20:45:47.337Z,85.37
2022-10-30T20:48:15.555Z,85.17
2022-10-30T20:50:46.432Z,85.00
2022-10-30T20:53:16.841Z,84.71
2022-10-30T20:55:44.713Z,85.05
2022-10-30T20:58:13.770Z,85.56
2022-10-30T21:00:42.062Z,86.13
2022-10-30T21:03:14.230Z,86.36
2022-10-30T21:05:44.630Z,86.35
2022-10-30T21:08:13.420Z,86.26
2022-10-30T21:10:41.932Z,86.16
2022-10-30T21:13:10.926Z,86.17
2022-10-30T21:15:40.900Z,85.98
2022-10-30T21:18:08.666Z,86.62
2022-10-30T21:20:37.074Z,86.49
2022-10-30T21:23:04.730Z,86.36
2022-10-30T21:25:32.762Z,85.97
2022-10-30T21:28:00.856Z,86.35
2022-10-30T21:30:28.680Z,86.10
2022-10-30T21:32:59.344Z,85.23
2022-10-30T21:35:27.604Z,85.37
2022-10-30T21:37:55.250Z,85.35
2022-10-30T21:40:22.853Z,85.50
2022-10-30T21:42:50.467Z,86.01
2022-10-30T21:45:18.299Z,85.50
2022-10-30T21:47:45.860Z,84.76
2022-10-30T21:50:14.904Z,84.67
2022-10-30T21:52:42.514Z,84.23
2022-10-30T21:55:10.388Z,84.14
2022-10-30T21:57:38.013Z,83.64
2022-10-30T22:00:07.520Z,84.22
2022-10-30T22:02:35.682Z,84.45
2022-10-30T22:05:03.306Z,85.00
2022-10-30T22:07:32.266Z,87.24
2022-10-30T22:09:59.832Z,88.25
2022-10-30T22:12:27.575Z,89.62
2022-10-30T22:14:55.181Z,89.01
2022-10-30T22:17:22.715Z,85.81
2022-10-30T22:19:50.324Z,84.94
2022-10-30T22:22:17.979Z,83.67
2022-10-30T22:24:46.912Z,83.43
2022-10-30T22:27:14.519Z,83.55
2022-10-30T22:29:42.041Z,84.08
2022-10-30T22:32:09.649Z,83.33
2022-10-30T22:34:37.295Z,83.47
2022-10-30T22:37:04.846Z,83.23
2022-10-30T22:39:32.400Z,83.72
2022-10-30T22:42:01.442Z,83.71
2022-10-30T22:44:29.054Z,83.02
2022-10-30T22:46:56.673Z,81.61
2022-10-30T22:49:24.316Z,81.12
2022-10-30T22:51:51.866Z,80.80
2022-10-30T22:54:19.454Z,80.85
2022-10-30T22:56:47.048Z,80.62
2022-10-30T22:59:15.946Z,81.17
2022-10-30T23:01:44.160Z,80.95
2022-10-30T23:04:14.015Z,80.16
2022-10-30T23:06:41.616Z,79.92
2022-10-30T23:09:15.995Z,80.10
2022-10-30T23:11:43.635Z,80.17
2022-10-30T23:14:11.195Z,80.29
2022-10-30T23:16:40.428Z,80.73
2022-10-30T23:19:08.965Z,81.13
2022-10-30T23:21:36.738Z,80.34
2022-10-30T23:24:05.512Z,80.37
2022-10-30T23:26:35.450Z,80.62
2022-10-30T23:29:03.847Z,80.34
2022-10-30T23:31:34.318Z,80.70
2022-10-30T23:34:05.382Z,80.90
2022-10-30T23:36:33.350Z,80.67
2022-10-30T23:39:02.518Z,80.81
2022-10-30T23:41:31.993Z,80.15
2022-10-30T23:44:01.264Z,78.97
2022-10-30T23:46:29.451Z,78.63
2022-10-30T23:48:57.328Z,78.57
2022-10-30T23:51:27.058Z,78.53
2022-10-30T23:53:55.610Z,78.24
2022-10-30T23:56:23.523Z,77.96
2022-10-30T23:58:52.477Z,78.13
